createdAt,value
2017-07-23T00:02:28.903Z,1006.5
2017-07-23T00:05:00.659Z,1006.5
2017-07-23T00:07:32.369Z,1006.5
2017-07-23T00:10:05.392Z,1006.6
2017-07-23T00:12:37.195Z,1006.6
2017-07-23T00:15:08.923Z,1006.6
2017-07-23T00:17:40.771Z,1006.6
2017-07-23T00:20:12.530Z,1006.6
2017-07-23T00:22:44.536Z,1006.6
2017-07-23T00:25:16.277Z,1006.5
2017-07-23T00:27:48.115Z,1006.5
2017-07-23T00:30:21.073Z,1006.6
2017-07-23T00:32:53.867Z,1006.5
2017-07-23T00:35:26.697Z,1006.5
2017-07-23T00:37:58.391Z,1006.4
2017-07-23T00:40:31.166Z,1006.5
2017-07-23T00:43:02.904Z,1006.5
2017-07-23T00:45:34.661Z,1006.5
2017-07-23T00:48:06.454Z,1006.6
2017-07-23T00:50:38.209Z,1006.5
2017-07-23T00:53:09.921Z,1006.6
2017-07-23T00:55:41.679Z,1006.6
2017-07-23T00:58:13.412Z,1006.6
2017-07-23T01:00:45.164Z,1006.5
2017-07-23T01:03:16.881Z,1006.6
2017-07-23T01:05:48.637Z,1006.6
2017-07-23T01:08:20.347Z,1006.6
2017-07-23T01:10:52.088Z,1006.6
2017-07-23T01:13:23.828Z,1006.5
2017-07-23T01:15:55.635Z,1006.5
2017-07-23T01:18:27.341Z,1006.5
2017-07-23T01:20:59.104Z,1006.4
2017-07-23T01:23:30.834Z,1006.5
2017-07-23T01:26:02.603Z,1006.5
2017-07-23T01:28:34.325Z,1006.3
2017-07-23T01:31:06.073Z,1006.4
2017-07-23T01:33:37.791Z,1006.4
2017-07-23T01:36:09.571Z,1006.5
2017-07-23T01:38:41.290Z,1006.5
2017-07-23T01:41:13.034Z,1006.5
2017-07-23T01:43:44.762Z,1006.5
2017-07-23T01:46:16.506Z,1006.5
2017-07-23T01:48:48.206Z,1006.5
2017-07-23T01:51:19.977Z,1006.5
2017-07-23T01:53:51.682Z,1006.4
2017-07-23T01:56:23.437Z,1006.4
2017-07-23T01:58:55.148Z,1006.4
2017-07-23T02:01:26.916Z,1006.3
2017-07-23T02:03:58.629Z,1006.1
2017-07-23T02:06:30.386Z,1006.0
2017-07-23T02:09:02.125Z,1006.1
2017-07-23T02:11:33.880Z,1006.0
2017-07-23T02:14:05.591Z,1005.9
2017-07-23T02:16:37.393Z,1005.9
2017-07-23T02:19:09.104Z,1005.8
2017-07-23T02:21:40.847Z,1005.8
2017-07-23T02:24:12.571Z,1005.9
2017-07-23T02:26:44.344Z,1006.0
2017-07-23T02:29:16.075Z,1006.0
2017-07-23T02:31:47.829Z,1006.0
2017-07-23T02:34:19.546Z,1006.1
2017-07-23T02:36:51.306Z,1006.2
2017-07-23T02:39:23.014Z,1006.3
2017-07-23T02:41:54.765Z,1006.4
2017-07-23T02:44:26.486Z,1006.5
2017-07-23T02:46:58.224Z,1006.5
2017-07-23T02:49:29.945Z,1006.4
2017-07-23T02:52:01.693Z,1006.3
2017-07-23T02:54:33.411Z,1006.4
2017-07-23T02:57:05.165Z,1006.4
2017-07-23T02:59:36.901Z,1006.4
2017-07-23T03:02:08.653Z,1006.5
2017-07-23T03:04:40.361Z,1006.6
2017-07-23T03:07:12.115Z,1006.7
2017-07-23T03:09:43.816Z,1006.7
2017-07-23T03:12:15.566Z,1006.6
2017-07-23T03:14:47.288Z,1006.8
2017-07-23T03:17:19.039Z,1006.9
2017-07-23T03:19:50.760Z,1006.9
2017-07-23T03:22:22.518Z,1007.0
2017-07-23T03:24:54.226Z,1007.1
2017-07-23T03:27:25.970Z,1007.1
2017-07-23T03:29:57.697Z,1007.2
2017-07-23T03:32:29.469Z,1007.2
2017-07-23T03:35:01.185Z,1007.3
2017-07-23T03:37:32.971Z,1007.2
2017-07-23T03:40:04.692Z,1007.2
2017-07-23T03:42:36.454Z,1007.4
2017-07-23T03:45:08.173Z,1007.5
2017-07-23T03:47:39.916Z,1007.5
2017-07-23T03:50:11.619Z,1007.5
2017-07-23T03:52:43.423Z,1007.5
2017-07-23T03:55:15.174Z,1007.5
2017-07-23T03:57:46.967Z,1007.5
2017-07-23T04:00:18.734Z,1007.6
2017-07-23T04:02:50.513Z,1007.6
2017-07-23T04:05:22.231Z,1007.7
2017-07-23T04:07:53.999Z,1007.7
2017-07-23T04:10:25.727Z,1007.8
2017-07-23T04:12:57.479Z,1007.8
2017-07-23T04:15:29.207Z,1007.8
2017-07-23T04:18:00.986Z,1007.9
2017-07-23T04:20:32.736Z,1008.0
2017-07-23T04:23:04.496Z,1007.9
2017-07-23T04:25:36.228Z,1007.9
2017-07-23T04:28:07.962Z,1008.0
2017-07-23T04:30:39.680Z,1008.0
2017-07-23T04:33:11.445Z,1008.0
2017-07-23T04:35:43.173Z,1008.0
2017-07-23T04:38:14.946Z,1008.1
2017-07-23T04:40:46.669Z,1008.1
2017-07-23T04:43:18.444Z,1008.1
2017-07-23T04:45:50.180Z,1008.1
2017-07-23T04:48:21.939Z,1008.2
2017-07-23T04:50:53.672Z,1008.2
2017-07-23T04:53:25.445Z,1008.2
2017-07-23T04:55:57.186Z,1008.2
2017-07-23T04:58:28.954Z,1008.3
2017-07-23T05:01:00.663Z,1008.3
2017-07-23T05:03:32.458Z,1008.4
2017-07-23T05:06:04.216Z,1008.5
2017-07-23T05:08:35.986Z,1008.5
2017-07-23T05:11:07.728Z,1008.5
2017-07-23T05:13:39.488Z,1008.4
2017-07-23T05:16:11.224Z,1008.4
2017-07-23T05:18:43.009Z,1008.5
2017-07-23T05:21:14.768Z,1008.4
2017-07-23T05:23:46.540Z,1008.5
2017-07-23T05:26:18.278Z,1008.5
2017-07-23T05:28:50.033Z,1008.6
2017-07-23T05:31:21.761Z,1008.5
2017-07-23T05:33:53.536Z,1008.5
2017-07-23T05:36:25.322Z,1008.5
2017-07-23T05:38:57.084Z,1008.6
2017-07-23T05:41:28.834Z,1008.6
2017-07-23T05:44:00.584Z,1008.7
2017-07-23T05:46:32.344Z,1008.6
2017-07-23T05:49:04.145Z,1008.6
2017-07-23T05:51:35.875Z,1008.6
2017-07-23T05:54:07.665Z,1008.7
2017-07-23T05:56:39.381Z,1008.6
2017-07-23T05:59:11.136Z,1008.6
2017-07-23T06:01:42.855Z,1008.7
2017-07-23T06:04:14.592Z,1008.8
2017-07-23T06:06:47.766Z,1008.8
2017-07-23T06:09:19.559Z,1008.8
2017-07-23T06:11:51.286Z,1008.7
2017-07-23T06:14:23.051Z,1008.7
2017-07-23T06:16:54.796Z,1008.8
2017-07-23T06:19:26.572Z,1008.8
2017-07-23T06:21:58.306Z,1008.8
2017-07-23T06:24:30.060Z,1008.7
2017-07-23T06:27:01.813Z,1008.7
2017-07-23T06:29:33.585Z,1008.9
2017-07-23T06:32:05.308Z,1008.8
2017-07-23T06:34:37.073Z,1008.8
2017-07-23T06:37:08.802Z,1008.8
2017-07-23T06:39:41.187Z,1008.8
2017-07-23T06:42:12.874Z,1008.7
2017-07-23T06:44:44.636Z,1008.8
2017-07-23T06:47:16.381Z,1008.7
2017-07-23T06:49:48.142Z,1008.7
2017-07-23T06:52:19.891Z,1008.7
2017-07-23T06:54:51.646Z,1008.8
2017-07-23T06:57:23.661Z,1008.7
2017-07-23T06:59:55.443Z,1008.8
2017-07-23T07:02:27.162Z,1008.8
2017-07-23T07:04:58.917Z,1008.8
2017-07-23T07:07:30.654Z,1008.8
2017-07-23T07:10:02.493Z,1008.7
2017-07-23T07:12:34.194Z,1008.8
2017-07-23T07:15:05.944Z,1008.8
2017-07-23T07:17:37.672Z,1008.8
2017-07-23T07:20:09.422Z,1008.7
2017-07-23T07:22:41.140Z,1008.7
2017-07-23T07:25:12.886Z,1008.7
2017-07-23T07:27:45.039Z,1008.7
2017-07-23T07:30:17.181Z,1008.8
2017-07-23T07:32:48.891Z,1008.8
2017-07-23T08:33:56.751Z,1008.7
2017-07-23T08:36:28.545Z,1008.7
2017-07-23T08:39:00.275Z,1008.8
2017-07-23T08:41:32.017Z,1008.8
2017-07-23T08:44:03.754Z,1008.7
2017-07-23T08:46:35.515Z,1008.7
2017-07-23T08:49:07.248Z,1008.7
2017-07-23T08:51:39.015Z,1008.7
2017-07-23T08:54:10.756Z,1008.8
2017-07-23T08:56:42.535Z,1008.7
2017-07-23T08:59:14.242Z,1008.7
2017-07-23T09:01:46.033Z,1008.7
2017-07-23T09:04:17.780Z,1008.8
2017-07-23T09:06:49.538Z,1008.8
2017-07-23T09:09:21.306Z,1008.8
2017-07-23T09:11:53.091Z,1008.8
2017-07-23T09:14:24.822Z,1008.8
2017-07-23T09:16:56.578Z,1008.8
2017-07-23T09:19:28.312Z,1008.9
2017-07-23T09:22:00.081Z,1008.9
2017-07-23T09:24:31.900Z,1008.9
2017-07-23T09:27:03.795Z,1008.9
2017-07-23T09:29:35.505Z,1008.9
2017-07-23T09:32:07.269Z,1009.0
2017-07-23T09:34:38.999Z,1008.9
2017-07-23T09:37:10.788Z,1009.0
2017-07-23T09:39:42.525Z,1008.9
2017-07-23T09:42:14.284Z,1008.9
2017-07-23T09:44:46.028Z,1008.9
2017-07-23T09:47:17.789Z,1008.8
2017-07-23T09:49:49.517Z,1008.9
2017-07-23T09:52:21.303Z,1008.8
2017-07-23T09:54:53.073Z,1008.8
2017-07-23T09:57:24.922Z,1008.8
2017-07-23T09:59:56.646Z,1008.9
2017-07-23T10:02:29.510Z,1008.9
2017-07-23T10:05:01.286Z,1008.9
2017-07-23T10:07:33.043Z,1008.9
2017-07-23T10:10:05.703Z,1008.9
2017-07-23T10:12:37.715Z,1008.9
2017-07-23T10:15:16.025Z,1008.9
2017-07-23T10:17:48.920Z,1008.9
2017-07-23T10:20:20.678Z,1008.9
2017-07-23T10:22:52.548Z,1008.9
2017-07-23T10:25:25.812Z,1008.8
2017-07-23T10:27:59.338Z,1008.8
2017-07-23T10:30:33.363Z,1008.8
2017-07-23T10:33:05.098Z,1008.8
2017-07-23T10:35:42.029Z,1008.8
2017-07-23T10:38:17.303Z,1008.8
2017-07-23T10:40:57.278Z,1008.9
2017-07-23T10:43:30.690Z,1008.8
2017-07-23T10:46:05.248Z,1008.9
2017-07-23T10:48:42.943Z,1008.8
2017-07-23T10:51:14.630Z,1008.9
2017-07-23T10:53:50.006Z,1008.8
2017-07-23T10:56:22.947Z,1008.8
2017-07-23T10:58:56.174Z,1008.8
2017-07-23T11:01:28.013Z,1008.7
2017-07-23T11:03:59.770Z,1008.7
2017-07-23T11:06:31.506Z,1008.7
2017-07-23T11:09:03.604Z,1008.6
2017-07-23T11:11:35.609Z,1008.6
2017-07-23T11:14:07.363Z,1008.7
2017-07-23T11:16:39.067Z,1008.7
2017-07-23T11:19:13.211Z,1008.7
2017-07-23T11:21:45.023Z,1008.7
2017-07-23T11:24:16.790Z,1008.7
2017-07-23T11:26:49.735Z,1008.6
2017-07-23T11:29:21.512Z,1008.7
2017-07-23T11:31:53.919Z,1008.9
2017-07-23T11:34:25.703Z,1008.9
2017-07-23T11:36:57.410Z,1009.0
2017-07-23T11:39:29.172Z,1009.0
2017-07-23T11:42:01.193Z,1008.9
2017-07-23T11:44:36.547Z,1009.0
2017-07-23T11:47:08.267Z,1009.0
2017-07-23T11:49:40.069Z,1009.1
2017-07-23T11:52:11.803Z,1009.1
2017-07-23T11:54:44.565Z,1009.0
2017-07-23T11:57:16.455Z,1009.0
2017-07-23T11:59:48.242Z,1009.0
2017-07-23T12:02:20.051Z,1008.9
2017-07-23T12:04:51.830Z,1009.0
2017-07-23T12:07:23.583Z,1009.0
2017-07-23T12:09:56.051Z,1009.0
2017-07-23T12:12:27.816Z,1009.1
2017-07-23T12:14:59.576Z,1009.0
2017-07-23T12:17:31.325Z,1009.0
2017-07-23T12:20:04.333Z,1009.0
2017-07-23T12:22:36.096Z,1009.0
2017-07-23T12:25:07.840Z,1009.1
2017-07-23T12:27:40.058Z,1009.1
2017-07-23T12:30:11.937Z,1009.1
2017-07-23T12:32:43.691Z,1009.1
2017-07-23T12:35:15.496Z,1009.1
2017-07-23T12:37:47.504Z,1009.1
2017-07-23T12:40:19.526Z,1009.0
2017-07-23T12:42:51.399Z,1009.0
2017-07-23T12:45:24.639Z,1009.0
2017-07-23T12:47:56.389Z,1009.0
2017-07-23T12:50:28.185Z,1009.0
2017-07-23T12:52:59.956Z,1009.0
2017-07-23T12:55:31.740Z,1009.0
2017-07-23T12:58:03.482Z,1008.9
2017-07-23T13:00:35.276Z,1008.9
2017-07-23T13:03:07.091Z,1008.9
2017-07-23T13:05:38.820Z,1008.8
2017-07-23T13:08:10.530Z,1008.9
2017-07-23T13:10:42.295Z,1008.9
2017-07-23T13:13:14.004Z,1008.8
2017-07-23T13:15:45.795Z,1008.8
2017-07-23T13:18:17.514Z,1008.8
2017-07-23T13:20:49.878Z,1008.8
2017-07-23T13:23:21.922Z,1008.8
2017-07-23T13:25:53.673Z,1008.8
2017-07-23T13:28:26.043Z,1008.7
2017-07-23T13:30:57.799Z,1008.7
2017-07-23T13:33:30.492Z,1008.8
2017-07-23T13:36:02.587Z,1008.7
2017-07-23T13:38:34.841Z,1008.7
2017-07-23T13:41:06.599Z,1008.7
2017-07-23T13:43:38.464Z,1008.7
2017-07-23T13:46:10.291Z,1008.8
2017-07-23T13:48:42.041Z,1008.8
2017-07-23T13:51:13.878Z,1008.7
2017-07-23T13:53:45.645Z,1008.7
2017-07-23T13:56:17.445Z,1008.8
2017-07-23T13:58:49.170Z,1008.8
2017-07-23T14:01:20.948Z,1009.0
2017-07-23T14:03:52.662Z,1009.1
2017-07-23T14:06:24.424Z,1009.3
2017-07-23T14:08:56.153Z,1009.2
2017-07-23T14:11:27.983Z,1009.1
2017-07-23T14:13:59.715Z,1009.1
2017-07-23T14:16:31.462Z,1009.1
2017-07-23T14:19:03.191Z,1009.1
2017-07-23T14:21:34.974Z,1009.1
2017-07-23T14:24:06.687Z,1009.0
2017-07-23T14:26:38.446Z,1009.0
2017-07-23T14:29:10.162Z,1009.0
2017-07-23T14:31:41.906Z,1009.0
2017-07-23T14:34:13.641Z,1008.9
2017-07-23T14:36:45.419Z,1008.9
2017-07-23T14:39:17.145Z,1008.8
2017-07-23T14:41:48.926Z,1008.9
2017-07-23T14:44:20.658Z,1008.8
2017-07-23T14:46:52.512Z,1008.8
2017-07-23T14:49:24.236Z,1008.8
2017-07-23T14:51:56.058Z,1008.8
2017-07-23T14:54:27.859Z,1008.8
2017-07-23T14:56:59.660Z,1008.7
2017-07-23T14:59:31.391Z,1008.7
2017-07-23T15:02:03.140Z,1008.7
2017-07-23T15:04:34.867Z,1008.6
2017-07-23T15:07:06.642Z,1008.6
2017-07-23T15:09:38.366Z,1008.6
2017-07-23T15:12:10.190Z,1008.5
2017-07-23T15:14:41.923Z,1008.5
2017-07-23T15:17:13.691Z,1008.5
2017-07-23T15:19:45.523Z,1008.5
2017-07-23T15:22:17.289Z,1008.5
2017-07-23T15:24:49.001Z,1008.5
2017-07-23T15:27:20.792Z,1008.4
2017-07-23T15:29:52.563Z,1008.4
2017-07-23T15:32:24.335Z,1008.4
2017-07-23T15:34:56.084Z,1008.4
2017-07-23T15:37:27.836Z,1008.4
2017-07-23T15:39:59.610Z,1008.4
2017-07-23T15:42:31.368Z,1008.3
2017-07-23T15:45:03.091Z,1008.3
2017-07-23T15:47:34.907Z,1008.3
